sensor_id;sensor_type;location;lat;lon;timestamp;P1;P2;P0
63432;PMS5003;49564;59.406;24.724;2023-08-30T11:00:38;9;8;
63432;PMS5003;49564;59.406;24.724;2023-08-30T21:44:47;15;10;
63432;PMS5003;49564;59.406;24.724;2023-08-30T21:46:37;14;10;
63432;PMS5003;49564;59.406;24.724;2023-08-30T21:49:03;9;9;
63432;PMS5003;49564;59.406;24.724;2023-08-30T21:51:30;10;10;
63432;PMS5003;49564;59.406;24.724;2023-08-30T21:53:56;12;11;
63432;PMS5003;49564;59.406;24.724;2023-08-30T21:56:41;9;8;
63432;PMS5003;49564;59.406;24.724;2023-08-30T22:01:34;9;7;
63432;PMS5003;49564;59.406;24.724;2023-08-30T22:04:01;11;11;
63432;PMS5003;49564;59.406;24.724;2023-08-30T22:06:27;12;11;
63432;PMS5003;49564;59.406;24.724;2023-08-30T22:08:53;12;12;
63432;PMS5003;49564;59.406;24.724;2023-08-30T22:11:19;22;17;
63432;PMS5003;49564;59.406;24.724;2023-08-30T22:13:46;13;13;
63432;PMS5003;49564;59.406;24.724;2023-08-30T22:27:05;13;12;
63432;PMS5003;49564;59.406;24.724;2023-08-30T22:41:26;24;22;
63432;PMS5003;49564;59.406;24.724;2023-08-30T22:47:59;18;16;
63432;PMS5003;49564;59.406;24.724;2023-08-30T22:50:26;16;15;
63432;PMS5003;49564;59.406;24.724;2023-08-30T22:52:52;21;16;
63432;PMS5003;49564;59.406;24.724;2023-08-30T22:55:18;16;15;
63432;PMS5003;49564;59.406;24.724;2023-08-30T22:57:50;15;14;
63432;PMS5003;49564;59.406;24.724;2023-08-30T23:00:16;14;14;
63432;PMS5003;49564;59.406;24.724;2023-08-30T23:02:42;19;19;
63432;PMS5003;49564;59.406;24.724;2023-08-30T23:05:08;18;17;
63432;PMS5003;49564;59.406;24.724;2023-08-30T23:07:35;14;14;
63432;PMS5003;49564;59.406;24.724;2023-08-30T23:10:01;15;15;
63432;PMS5003;49564;59.406;24.724;2023-08-30T23:12:28;16;14;
63432;PMS5003;49564;59.406;24.724;2023-08-30T23:14:54;17;14;
63432;PMS5003;49564;59.406;24.724;2023-08-30T23:17:21;13;13;
63432;PMS5003;49564;59.406;24.724;2023-08-30T23:19:47;17;15;
63432;PMS5003;49564;59.406;24.724;2023-08-30T23:22:13;17;14;
63432;PMS5003;49564;59.406;24.724;2023-08-30T23:24:40;20;19;
63432;PMS5003;49564;59.406;24.724;2023-08-30T23:27:06;22;20;
63432;PMS5003;49564;59.406;24.724;2023-08-30T23:29:32;18;17;
63432;PMS5003;49564;59.406;24.724;2023-08-30T23:31:58;20;20;
63432;PMS5003;49564;59.406;24.724;2023-08-30T23:34:24;17;16;
63432;PMS5003;49564;59.406;24.724;2023-08-30T23:36:51;16;15;
63432;PMS5003;49564;59.406;24.724;2023-08-30T23:39:17;18;16;
63432;PMS5003;49564;59.406;24.724;2023-08-30T23:41:43;17;15;
63432;PMS5003;49564;59.406;24.724;2023-08-30T23:44:09;19;17;
63432;PMS5003;49564;59.406;24.724;2023-08-30T23:46:35;17;17;
63432;PMS5003;49564;59.406;24.724;2023-08-30T23:49:01;13;13;
63432;PMS5003;49564;59.406;24.724;2023-08-30T23:51:27;14;13;
63432;PMS5003;49564;59.406;24.724;2023-08-30T23:53:54;16;12;
63432;PMS5003;49564;59.406;24.724;2023-08-30T23:56:20;12;11;
63432;PMS5003;49564;59.406;24.724;2023-08-30T23:58:46;12;10;
